sensor_id;sensor_type;location;lat;lon;timestamp;temperature;humidity
69626;DHT22;56847;51.984;5.088;2023-03-17T00:01:46;11.30;60.70
69626;DHT22;56847;51.984;5.088;2023-03-17T00:04:17;11.30;60.90
69626;DHT22;56847;51.984;5.088;2023-03-17T00:06:45;11.30;61.10
69626;DHT22;56847;51.984;5.088;2023-03-17T00:09:17;11.20;61.10
69626;DHT22;56847;51.984;5.088;2023-03-17T00:11:45;11.20;61.30
69626;DHT22;56847;51.984;5.088;2023-03-17T00:14:12;11.20;61.20
69626;DHT22;56847;51.984;5.088;2023-03-17T00:16:42;11.20;61.20
69626;DHT22;56847;51.984;5.088;2023-03-17T00:19:42;11.20;61.30
69626;DHT22;56847;51.984;5.088;2023-03-17T00:22:15;11.30;61.30
69626;DHT22;56847;51.984;5.088;2023-03-17T00:24:43;11.20;61.30
69626;DHT22;56847;51.984;5.088;2023-03-17T00:27:11;11.20;61.30
69626;DHT22;56847;51.984;5.088;2023-03-17T00:29:39;11.20;61.30
69626;DHT22;56847;51.984;5.088;2023-03-17T00:32:18;11.20;61.20
69626;DHT22;56847;51.984;5.088;2023-03-17T00:34:50;11.20;61.30
69626;DHT22;56847;51.984;5.088;2023-03-17T00:37:17;11.20;61.20
69626;DHT22;56847;51.984;5.088;2023-03-17T00:39:45;11.20;61.20
69626;DHT22;56847;51.984;5.088;2023-03-17T00:42:12;11.20;61.30
69626;DHT22;56847;51.984;5.088;2023-03-17T00:44:39;11.20;61.40
69626;DHT22;56847;51.984;5.088;2023-03-17T00:47:08;11.10;61.30
69626;DHT22;56847;51.984;5.088;2023-03-17T00:49:37;11.10;61.40
69626;DHT22;56847;51.984;5.088;2023-03-17T00:52:08;11.10;61.40
69626;DHT22;56847;51.984;5.088;2023-03-17T00:54:35;11.00;61.50
69626;DHT22;56847;51.984;5.088;2023-03-17T00:57:02;11.00;61.50
69626;DHT22;56847;51.984;5.088;2023-03-17T00:59:41;11.00;61.60
69626;DHT22;56847;51.984;5.088;2023-03-17T01:02:13;11.00;61.60
69626;DHT22;56847;51.984;5.088;2023-03-17T01:04:41;11.10;61.70
69626;DHT22;56847;51.984;5.088;2023-03-17T01:07:15;11.00;61.80
69626;DHT22;56847;51.984;5.088;2023-03-17T01:09:45;11.00;61.80
69626;DHT22;56847;51.984;5.088;2023-03-17T01:12:12;11.10;61.90
69626;DHT22;56847;51.984;5.088;2023-03-17T01:14:39;11.10;61.90
69626;DHT22;56847;51.984;5.088;2023-03-17T01:17:13;11.10;61.90
69626;DHT22;56847;51.984;5.088;2023-03-17T01:19:41;11.10;62.00
69626;DHT22;56847;51.984;5.088;2023-03-17T01:22:08;11.10;61.90
69626;DHT22;56847;51.984;5.088;2023-03-17T01:24:35;11.10;61.90
69626;DHT22;56847;51.984;5.088;2023-03-17T01:27:03;11.10;61.80
69626;DHT22;56847;51.984;5.088;2023-03-17T01:29:30;11.00;61.90
69626;DHT22;56847;51.984;5.088;2023-03-17T01:31:57;11.00;61.80
69626;DHT22;56847;51.984;5.088;2023-03-17T01:34:25;11.00;61.90
69626;DHT22;56847;51.984;5.088;2023-03-17T01:36:52;11.00;61.90
69626;DHT22;56847;51.984;5.088;2023-03-17T01:39:20;10.90;62.00
69626;DHT22;56847;51.984;5.088;2023-03-17T01:41:47;10.90;62.00
69626;DHT22;56847;51.984;5.088;2023-03-17T01:44:16;10.80;62.10
69626;DHT22;56847;51.984;5.088;2023-03-17T01:46:44;10.80;62.10
69626;DHT22;56847;51.984;5.088;2023-03-17T01:49:29;10.80;62.30
69626;DHT22;56847;51.984;5.088;2023-03-17T01:52:05;10.70;62.40
69626;DHT22;56847;51.984;5.088;2023-03-17T01:54:49;10.70;62.40
69626;DHT22;56847;51.984;5.088;2023-03-17T02:00:06;10.70;62.50
69626;DHT22;56847;51.984;5.088;2023-03-17T02:02:43;10.70;62.40
69626;DHT22;56847;51.984;5.088;2023-03-17T02:05:13;10.60;62.60
69626;DHT22;56847;51.984;5.088;2023-03-17T02:07:43;10.60;62.60
69626;DHT22;56847;51.984;5.088;2023-03-17T02:10:12;10.60;62.70
69626;DHT22;56847;51.984;5.088;2023-03-17T02:12:41;10.60;62.80
69626;DHT22;56847;51.984;5.088;2023-03-17T02:15:09;10.60;62.80
69626;DHT22;56847;51.984;5.088;2023-03-17T02:17:36;10.60;62.80
69626;DHT22;56847;51.984;5.088;2023-03-17T02:22:46;10.60;62.90
69626;DHT22;56847;51.984;5.088;2023-03-17T02:25:15;10.60;62.90
69626;DHT22;56847;51.984;5.088;2023-03-17T02:27:45;10.60;63.00
69626;DHT22;56847;51.984;5.088;2023-03-17T02:30:16;10.60;63.10
69626;DHT22;56847;51.984;5.088;2023-03-17T02:32:44;10.60;63.00
69626;DHT22;56847;51.984;5.088;2023-03-17T02:35:12;10.60;62.90
69626;DHT22;56847;51.984;5.088;2023-03-17T02:37:41;10.60;62.90
69626;DHT22;56847;51.984;5.088;2023-03-17T02:40:13;10.60;62.90
69626;DHT22;56847;51.984;5.088;2023-03-17T02:42:41;10.60;63.00
69626;DHT22;56847;51.984;5.088;2023-03-17T02:45:10;10.60;63.00
69626;DHT22;56847;51.984;5.088;2023-03-17T02:47:38;10.60;63.00
69626;DHT22;56847;51.984;5.088;2023-03-17T02:50:06;10.70;63.00
69626;DHT22;56847;51.984;5.088;2023-03-17T02:52:33;10.70;62.90
69626;DHT22;56847;51.984;5.088;2023-03-17T02:55:00;10.70;63.00
69626;DHT22;56847;51.984;5.088;2023-03-17T02:57:26;10.70;63.00
69626;DHT22;56847;51.984;5.088;2023-03-17T02:59:53;10.70;63.00
69626;DHT22;56847;51.984;5.088;2023-03-17T03:02:21;10.70;62.90
69626;DHT22;56847;51.984;5.088;2023-03-17T03:04:48;10.70;63.00
69626;DHT22;56847;51.984;5.088;2023-03-17T03:07:16;10.70;62.90
69626;DHT22;56847;51.984;5.088;2023-03-17T03:09:42;10.70;62.90
69626;DHT22;56847;51.984;5.088;2023-03-17T03:12:09;10.80;63.00
69626;DHT22;56847;51.984;5.088;2023-03-17T03:14:37;10.80;63.00
69626;DHT22;56847;51.984;5.088;2023-03-17T03:17:04;10.80;63.00
69626;DHT22;56847;51.984;5.088;2023-03-17T03:19:31;10.80;63.00
69626;DHT22;56847;51.984;5.088;2023-03-17T03:21:58;10.80;63.00
69626;DHT22;56847;51.984;5.088;2023-03-17T03:24:25;10.80;63.10
69626;DHT22;56847;51.984;5.088;2023-03-17T03:26:52;10.80;63.10
69626;DHT22;56847;51.984;5.088;2023-03-17T03:29:19;10.80;63.20
69626;DHT22;56847;51.984;5.088;2023-03-17T03:31:46;10.80;63.00
69626;DHT22;56847;51.984;5.088;2023-03-17T03:34:14;10.80;63.10
69626;DHT22;56847;51.984;5.088;2023-03-17T03:36:44;10.80;63.10
69626;DHT22;56847;51.984;5.088;2023-03-17T03:39:11;10.80;63.10
69626;DHT22;56847;51.984;5.088;2023-03-17T03:41:40;10.80;63.10
69626;DHT22;56847;51.984;5.088;2023-03-17T03:44:08;10.80;63.10
69626;DHT22;56847;51.984;5.088;2023-03-17T03:46:35;10.80;63.10
69626;DHT22;56847;51.984;5.088;2023-03-17T03:49:05;10.80;63.00
69626;DHT22;56847;51.984;5.088;2023-03-17T03:51:32;10.90;63.00
69626;DHT22;56847;51.984;5.088;2023-03-17T03:53:59;10.90;63.10
69626;DHT22;56847;51.984;5.088;2023-03-17T03:56:27;10.80;63.10
69626;DHT22;56847;51.984;5.088;2023-03-17T03:58:54;10.80;63.10
69626;DHT22;56847;51.984;5.088;2023-03-17T04:01:22;10.80;63.00
69626;DHT22;56847;51.984;5.088;2023-03-17T04:03:49;10.80;63.10
69626;DHT22;56847;51.984;5.088;2023-03-17T04:06:16;10.90;63.20
69626;DHT22;56847;51.984;5.088;2023-03-17T04:08:44;10.80;63.10
69626;DHT22;56847;51.984;5.088;2023-03-17T04:11:12;10.80;63.10
69626;DHT22;56847;51.984;5.088;2023-03-17T04:13:39;10.80;63.20
69626;DHT22;56847;51.984;5.088;2023-03-17T04:16:06;10.90;63.20
69626;DHT22;56847;51.984;5.088;2023-03-17T04:18:33;10.90;63.20
69626;DHT22;56847;51.984;5.088;2023-03-17T04:21:01;10.90;63.10
69626;DHT22;56847;51.984;5.088;2023-03-17T04:23:28;10.90;63.00
69626;DHT22;56847;51.984;5.088;2023-03-17T04:25:57;10.90;63.00
69626;DHT22;56847;51.984;5.088;2023-03-17T04:28:24;10.90;63.10
69626;DHT22;56847;51.984;5.088;2023-03-17T04:30:51;10.90;63.10
69626;DHT22;56847;51.984;5.088;2023-03-17T04:33:18;10.90;63.10
69626;DHT22;56847;51.984;5.088;2023-03-17T04:35:48;10.90;63.10
69626;DHT22;56847;51.984;5.088;2023-03-17T04:38:15;10.90;63.10
69626;DHT22;56847;51.984;5.088;2023-03-17T04:40:42;10.90;63.10
69626;DHT22;56847;51.984;5.088;2023-03-17T04:43:09;10.90;63.10
69626;DHT22;56847;51.984;5.088;2023-03-17T04:45:36;10.90;63.10
69626;DHT22;56847;51.984;5.088;2023-03-17T04:48:04;10.90;63.10
69626;DHT22;56847;51.984;5.088;2023-03-17T04:50:31;10.90;62.90
69626;DHT22;56847;51.984;5.088;2023-03-17T04:52:59;10.90;63.10
69626;DHT22;56847;51.984;5.088;2023-03-17T04:55:26;10.90;63.00
69626;DHT22;56847;51.984;5.088;2023-03-17T04:57:53;10.90;63.10
69626;DHT22;56847;51.984;5.088;2023-03-17T05:00:20;10.90;63.20
69626;DHT22;56847;51.984;5.088;2023-03-17T05:02:47;10.90;63.10
69626;DHT22;56847;51.984;5.088;2023-03-17T05:05:14;10.90;63.10
69626;DHT22;56847;51.984;5.088;2023-03-17T05:07:41;10.90;63.10
69626;DHT22;56847;51.984;5.088;2023-03-17T05:10:11;10.90;63.20
69626;DHT22;56847;51.984;5.088;2023-03-17T05:12:38;10.90;63.10
69626;DHT22;56847;51.984;5.088;2023-03-17T05:15:05;10.90;63.10
69626;DHT22;56847;51.984;5.088;2023-03-17T05:17:32;11.00;63.00
69626;DHT22;56847;51.984;5.088;2023-03-17T05:19:59;11.00;63.00
69626;DHT22;56847;51.984;5.088;2023-03-17T05:22:26;11.00;63.00
69626;DHT22;56847;51.984;5.088;2023-03-17T05:24:53;10.90;62.90
69626;DHT22;56847;51.984;5.088;2023-03-17T05:27:20;10.90;63.00
69626;DHT22;56847;51.984;5.088;2023-03-17T05:29:47;10.90;63.20
69626;DHT22;56847;51.984;5.088;2023-03-17T05:32:14;10.90;63.20
69626;DHT22;56847;51.984;5.088;2023-03-17T05:34:41;10.90;63.20
69626;DHT22;56847;51.984;5.088;2023-03-17T05:37:08;10.90;63.30
69626;DHT22;56847;51.984;5.088;2023-03-17T05:39:36;10.90;63.20
69626;DHT22;56847;51.984;5.088;2023-03-17T05:42:03;10.90;63.20
69626;DHT22;56847;51.984;5.088;2023-03-17T05:44:30;10.90;63.30
69626;DHT22;56847;51.984;5.088;2023-03-17T05:46:57;10.90;63.20
69626;DHT22;56847;51.984;5.088;2023-03-17T05:49:33;10.90;63.20
69626;DHT22;56847;51.984;5.088;2023-03-17T05:52:19;10.90;63.20
69626;DHT22;56847;51.984;5.088;2023-03-17T05:54:46;10.90;63.20
69626;DHT22;56847;51.984;5.088;2023-03-17T05:57:15;10.90;63.10
69626;DHT22;56847;51.984;5.088;2023-03-17T05:59:42;10.80;63.10
69626;DHT22;56847;51.984;5.088;2023-03-17T06:02:10;10.90;63.10
69626;DHT22;56847;51.984;5.088;2023-03-17T06:04:37;10.90;63.20
69626;DHT22;56847;51.984;5.088;2023-03-17T06:07:05;10.90;63.10
69626;DHT22;56847;51.984;5.088;2023-03-17T06:09:32;10.90;63.10
69626;DHT22;56847;51.984;5.088;2023-03-17T06:11:59;10.90;63.10
69626;DHT22;56847;51.984;5.088;2023-03-17T06:14:26;10.90;63.00
69626;DHT22;56847;51.984;5.088;2023-03-17T06:16:53;10.90;63.00
69626;DHT22;56847;51.984;5.088;2023-03-17T06:19:21;10.80;63.10
69626;DHT22;56847;51.984;5.088;2023-03-17T06:21:48;10.80;63.10
69626;DHT22;56847;51.984;5.088;2023-03-17T06:24:15;10.80;63.10
69626;DHT22;56847;51.984;5.088;2023-03-17T06:26:42;10.80;63.20
69626;DHT22;56847;51.984;5.088;2023-03-17T06:29:09;10.80;63.20
69626;DHT22;56847;51.984;5.088;2023-03-17T06:31:38;10.80;63.20
69626;DHT22;56847;51.984;5.088;2023-03-17T06:34:05;10.80;63.30
69626;DHT22;56847;51.984;5.088;2023-03-17T06:36:32;10.80;63.40
69626;DHT22;56847;51.984;5.088;2023-03-17T06:38:59;10.80;63.50
69626;DHT22;56847;51.984;5.088;2023-03-17T06:41:26;10.80;63.50
69626;DHT22;56847;51.984;5.088;2023-03-17T06:43:53;10.80;63.40
69626;DHT22;56847;51.984;5.088;2023-03-17T06:46:20;10.80;63.30
69626;DHT22;56847;51.984;5.088;2023-03-17T06:48:48;10.80;63.50
69626;DHT22;56847;51.984;5.088;2023-03-17T06:51:15;10.90;63.50
69626;DHT22;56847;51.984;5.088;2023-03-17T06:53:42;10.90;63.60
69626;DHT22;56847;51.984;5.088;2023-03-17T06:56:09;10.90;63.60
69626;DHT22;56847;51.984;5.088;2023-03-17T06:58:54;11.00;63.60
69626;DHT22;56847;51.984;5.088;2023-03-17T07:01:22;11.10;63.60
69626;DHT22;56847;51.984;5.088;2023-03-17T07:03:49;11.20;63.40
69626;DHT22;56847;51.984;5.088;2023-03-17T07:06:16;11.30;63.30
69626;DHT22;56847;51.984;5.088;2023-03-17T07:08:43;11.30;63.20
69626;DHT22;56847;51.984;5.088;2023-03-17T07:11:11;11.40;63.20
69626;DHT22;56847;51.984;5.088;2023-03-17T07:13:38;11.40;63.10
69626;DHT22;56847;51.984;5.088;2023-03-17T07:16:06;11.50;63.10
69626;DHT22;56847;51.984;5.088;2023-03-17T07:18:33;11.50;62.70
69626;DHT22;56847;51.984;5.088;2023-03-17T07:21:00;11.50;62.80
69626;DHT22;56847;51.984;5.088;2023-03-17T07:23:28;11.60;62.90
69626;DHT22;56847;51.984;5.088;2023-03-17T07:25:56;11.70;62.90
69626;DHT22;56847;51.984;5.088;2023-03-17T07:28:25;11.70;62.80
69626;DHT22;56847;51.984;5.088;2023-03-17T07:30:52;11.80;62.70
69626;DHT22;56847;51.984;5.088;2023-03-17T07:33:19;11.80;62.40
69626;DHT22;56847;51.984;5.088;2023-03-17T07:35:50;11.90;62.40
69626;DHT22;56847;51.984;5.088;2023-03-17T07:38:18;12.00;62.20
69626;DHT22;56847;51.984;5.088;2023-03-17T07:40:47;12.00;62.20
69626;DHT22;56847;51.984;5.088;2023-03-17T07:43:15;12.10;62.00
69626;DHT22;56847;51.984;5.088;2023-03-17T07:45:43;12.10;62.00
69626;DHT22;56847;51.984;5.088;2023-03-17T07:48:11;12.10;61.90
69626;DHT22;56847;51.984;5.088;2023-03-17T07:50:38;12.20;62.00
69626;DHT22;56847;51.984;5.088;2023-03-17T07:53:05;12.20;62.00
69626;DHT22;56847;51.984;5.088;2023-03-17T07:55:32;12.30;62.10
69626;DHT22;56847;51.984;5.088;2023-03-17T07:57:59;12.40;62.10
69626;DHT22;56847;51.984;5.088;2023-03-17T08:00:26;12.50;62.20
69626;DHT22;56847;51.984;5.088;2023-03-17T08:02:54;12.70;62.30
69626;DHT22;56847;51.984;5.088;2023-03-17T08:05:35;12.90;61.70
69626;DHT22;56847;51.984;5.088;2023-03-17T08:08:02;13.10;61.90
69626;DHT22;56847;51.984;5.088;2023-03-17T08:10:30;13.30;61.40
69626;DHT22;56847;51.984;5.088;2023-03-17T08:12:58;13.50;61.20
69626;DHT22;56847;51.984;5.088;2023-03-17T08:15:25;13.50;60.80
69626;DHT22;56847;51.984;5.088;2023-03-17T08:17:52;13.60;60.70
69626;DHT22;56847;51.984;5.088;2023-03-17T08:20:20;13.70;60.60
69626;DHT22;56847;51.984;5.088;2023-03-17T08:22:47;13.80;60.30
69626;DHT22;56847;51.984;5.088;2023-03-17T08:25:14;13.90;60.40
69626;DHT22;56847;51.984;5.088;2023-03-17T08:27:41;14.00;60.00
69626;DHT22;56847;51.984;5.088;2023-03-17T08:30:08;14.00;59.80
69626;DHT22;56847;51.984;5.088;2023-03-17T08:32:36;14.10;59.30
69626;DHT22;56847;51.984;5.088;2023-03-17T08:35:03;14.30;59.20
69626;DHT22;56847;51.984;5.088;2023-03-17T08:37:32;14.40;59.30
69626;DHT22;56847;51.984;5.088;2023-03-17T08:39:58;14.50;59.20
69626;DHT22;56847;51.984;5.088;2023-03-17T08:42:26;14.50;58.70
69626;DHT22;56847;51.984;5.088;2023-03-17T08:44:53;14.60;58.40
69626;DHT22;56847;51.984;5.088;2023-03-17T08:47:20;14.60;58.10
69626;DHT22;56847;51.984;5.088;2023-03-17T08:49:47;14.50;58.10
69626;DHT22;56847;51.984;5.088;2023-03-17T08:52:15;14.50;58.30
69626;DHT22;56847;51.984;5.088;2023-03-17T08:54:42;14.50;58.00
69626;DHT22;56847;51.984;5.088;2023-03-17T08:57:09;14.50;57.50
69626;DHT22;56847;51.984;5.088;2023-03-17T08:59:36;14.60;57.80
69626;DHT22;56847;51.984;5.088;2023-03-17T09:02:03;14.60;57.60
69626;DHT22;56847;51.984;5.088;2023-03-17T09:04:30;14.80;57.90
69626;DHT22;56847;51.984;5.088;2023-03-17T09:06:59;14.90;58.00
69626;DHT22;56847;51.984;5.088;2023-03-17T09:09:30;15.00;57.80
69626;DHT22;56847;51.984;5.088;2023-03-17T09:11:56;15.10;57.40
69626;DHT22;56847;51.984;5.088;2023-03-17T09:14:24;15.10;57.20
69626;DHT22;56847;51.984;5.088;2023-03-17T09:16:51;15.10;57.30
69626;DHT22;56847;51.984;5.088;2023-03-17T09:19:19;15.20;57.50
69626;DHT22;56847;51.984;5.088;2023-03-17T09:21:45;15.20;57.40
69626;DHT22;56847;51.984;5.088;2023-03-17T09:24:13;15.30;57.40
69626;DHT22;56847;51.984;5.088;2023-03-17T09:26:40;15.40;57.00
69626;DHT22;56847;51.984;5.088;2023-03-17T09:29:07;15.40;56.90
69626;DHT22;56847;51.984;5.088;2023-03-17T09:31:34;15.50;56.80
69626;DHT22;56847;51.984;5.088;2023-03-17T09:34:03;15.60;56.70
69626;DHT22;56847;51.984;5.088;2023-03-17T09:36:31;15.60;56.50
69626;DHT22;56847;51.984;5.088;2023-03-17T09:39:01;15.60;56.30
69626;DHT22;56847;51.984;5.088;2023-03-17T09:49:51;16.10;56.20
69626;DHT22;56847;51.984;5.088;2023-03-17T09:52:37;16.40;56.50
69626;DHT22;56847;51.984;5.088;2023-03-17T09:55:06;16.70;56.30
69626;DHT22;56847;51.984;5.088;2023-03-17T09:57:36;16.90;56.10
69626;DHT22;56847;51.984;5.088;2023-03-17T10:02:37;17.30;54.90
69626;DHT22;56847;51.984;5.088;2023-03-17T10:08:11;17.30;54.40
69626;DHT22;56847;51.984;5.088;2023-03-17T10:11:08;17.30;54.20
69626;DHT22;56847;51.984;5.088;2023-03-17T10:17:03;17.10;54.50
69626;DHT22;56847;51.984;5.088;2023-03-17T10:19:39;17.00;54.90
69626;DHT22;56847;51.984;5.088;2023-03-17T10:24:48;17.00;54.60
69626;DHT22;56847;51.984;5.088;2023-03-17T10:27:17;16.90;54.50
69626;DHT22;56847;51.984;5.088;2023-03-17T10:29:44;16.90;54.80
69626;DHT22;56847;51.984;5.088;2023-03-17T10:32:14;16.80;54.60
69626;DHT22;56847;51.984;5.088;2023-03-17T10:34:41;16.80;54.60
69626;DHT22;56847;51.984;5.088;2023-03-17T10:37:16;16.90;54.80
69626;DHT22;56847;51.984;5.088;2023-03-17T10:39:46;17.30;55.30
69626;DHT22;56847;51.984;5.088;2023-03-17T10:42:30;17.70;55.10
69626;DHT22;56847;51.984;5.088;2023-03-17T10:45:20;18.10;54.30
69626;DHT22;56847;51.984;5.088;2023-03-17T10:47:54;18.20;52.70
69626;DHT22;56847;51.984;5.088;2023-03-17T10:50:30;18.20;52.20
69626;DHT22;56847;51.984;5.088;2023-03-17T10:58:06;18.40;51.90
69626;DHT22;56847;51.984;5.088;2023-03-17T11:00:35;18.50;51.70
69626;DHT22;56847;51.984;5.088;2023-03-17T11:03:34;18.60;51.70
69626;DHT22;56847;51.984;5.088;2023-03-17T11:06:09;18.70;51.20
69626;DHT22;56847;51.984;5.088;2023-03-17T11:08:46;18.80;51.00
69626;DHT22;56847;51.984;5.088;2023-03-17T11:11:25;18.90;51.10
69626;DHT22;56847;51.984;5.088;2023-03-17T11:14:08;18.90;50.30
69626;DHT22;56847;51.984;5.088;2023-03-17T11:19:39;18.70;50.80
69626;DHT22;56847;51.984;5.088;2023-03-17T11:22:14;18.60;51.00
69626;DHT22;56847;51.984;5.088;2023-03-17T11:30:34;18.90;51.30
69626;DHT22;56847;51.984;5.088;2023-03-17T11:35:59;19.20;50.70
69626;DHT22;56847;51.984;5.088;2023-03-17T11:38:32;19.30;51.00
69626;DHT22;56847;51.984;5.088;2023-03-17T11:46:27;19.50;51.20
69626;DHT22;56847;51.984;5.088;2023-03-17T11:52:27;19.70;50.80
69626;DHT22;56847;51.984;5.088;2023-03-17T11:57:43;19.70;50.10
69626;DHT22;56847;51.984;5.088;2023-03-17T12:00:28;19.70;50.10
69626;DHT22;56847;51.984;5.088;2023-03-17T12:03:11;19.70;50.90
69626;DHT22;56847;51.984;5.088;2023-03-17T12:05:43;19.80;51.20
69626;DHT22;56847;51.984;5.088;2023-03-17T12:08:26;19.90;51.40
69626;DHT22;56847;51.984;5.088;2023-03-17T12:10:59;20.00;50.80
69626;DHT22;56847;51.984;5.088;2023-03-17T12:13:34;20.00;50.60
69626;DHT22;56847;51.984;5.088;2023-03-17T12:16:19;20.00;50.00
69626;DHT22;56847;51.984;5.088;2023-03-17T12:21:47;19.80;50.00
69626;DHT22;56847;51.984;5.088;2023-03-17T12:24:17;19.90;50.70
69626;DHT22;56847;51.984;5.088;2023-03-17T12:27:06;20.00;51.00
69626;DHT22;56847;51.984;5.088;2023-03-17T12:34:50;20.40;50.70
69626;DHT22;56847;51.984;5.088;2023-03-17T12:37:19;20.50;50.80
69626;DHT22;56847;51.984;5.088;2023-03-17T12:39:56;20.60;50.60
69626;DHT22;56847;51.984;5.088;2023-03-17T12:53:46;20.40;50.40
69626;DHT22;56847;51.984;5.088;2023-03-17T12:58:48;20.50;50.40
69626;DHT22;56847;51.984;5.088;2023-03-17T13:04:27;20.70;49.90
69626;DHT22;56847;51.984;5.088;2023-03-17T13:11:59;20.60;50.40
69626;DHT22;56847;51.984;5.088;2023-03-17T13:14:46;20.60;50.40
69626;DHT22;56847;51.984;5.088;2023-03-17T13:22:38;20.60;49.90
69626;DHT22;56847;51.984;5.088;2023-03-17T13:25:25;20.70;50.50
69626;DHT22;56847;51.984;5.088;2023-03-17T13:43:59;20.80;50.60
69626;DHT22;56847;51.984;5.088;2023-03-17T13:54:40;21.10;50.40
69626;DHT22;56847;51.984;5.088;2023-03-17T13:57:33;21.10;50.20
69626;DHT22;56847;51.984;5.088;2023-03-17T14:02:41;21.10;49.20
69626;DHT22;56847;51.984;5.088;2023-03-17T14:05:26;21.10;49.90
69626;DHT22;56847;51.984;5.088;2023-03-17T14:07:59;21.20;50.20
69626;DHT22;56847;51.984;5.088;2023-03-17T14:10:30;21.40;50.40
69626;DHT22;56847;51.984;5.088;2023-03-17T14:13:23;21.50;50.10
69626;DHT22;56847;51.984;5.088;2023-03-17T14:18:47;21.80;49.10
69626;DHT22;56847;51.984;5.088;2023-03-17T14:21:31;21.70;49.20
69626;DHT22;56847;51.984;5.088;2023-03-17T14:24:00;21.70;48.80
69626;DHT22;56847;51.984;5.088;2023-03-17T14:26:29;21.70;49.10
69626;DHT22;56847;51.984;5.088;2023-03-17T14:29:01;21.70;49.50
69626;DHT22;56847;51.984;5.088;2023-03-17T14:31:30;21.80;49.40
69626;DHT22;56847;51.984;5.088;2023-03-17T14:33:59;21.80;49.20
69626;DHT22;56847;51.984;5.088;2023-03-17T14:36:27;21.80;49.20
69626;DHT22;56847;51.984;5.088;2023-03-17T14:38:58;21.80;49.10
69626;DHT22;56847;51.984;5.088;2023-03-17T14:41:33;21.80;48.70
69626;DHT22;56847;51.984;5.088;2023-03-17T14:44:00;21.70;48.60
69626;DHT22;56847;51.984;5.088;2023-03-17T14:46:35;21.70;49.00
69626;DHT22;56847;51.984;5.088;2023-03-17T14:49:18;21.70;49.00
69626;DHT22;56847;51.984;5.088;2023-03-17T14:51:48;21.70;48.80
69626;DHT22;56847;51.984;5.088;2023-03-17T14:54:22;21.60;49.00
69626;DHT22;56847;51.984;5.088;2023-03-17T14:56:53;21.60;48.80
69626;DHT22;56847;51.984;5.088;2023-03-17T14:59:39;21.50;48.50
69626;DHT22;56847;51.984;5.088;2023-03-17T15:02:29;21.40;49.10
69626;DHT22;56847;51.984;5.088;2023-03-17T15:05:00;21.30;49.20
69626;DHT22;56847;51.984;5.088;2023-03-17T15:09:59;21.10;50.00
69626;DHT22;56847;51.984;5.088;2023-03-17T15:12:28;21.00;50.30
69626;DHT22;56847;51.984;5.088;2023-03-17T15:15:00;20.90;50.30
69626;DHT22;56847;51.984;5.088;2023-03-17T15:17:32;20.90;50.30
69626;DHT22;56847;51.984;5.088;2023-03-17T15:20:34;20.90;50.40
69626;DHT22;56847;51.984;5.088;2023-03-17T15:25:42;20.90;50.90
69626;DHT22;56847;51.984;5.088;2023-03-17T15:28:11;20.90;50.40
69626;DHT22;56847;51.984;5.088;2023-03-17T15:30:47;20.90;50.60
69626;DHT22;56847;51.984;5.088;2023-03-17T15:33:32;20.80;50.40
69626;DHT22;56847;51.984;5.088;2023-03-17T15:36:02;20.80;50.10
69626;DHT22;56847;51.984;5.088;2023-03-17T15:38:30;20.80;50.30
69626;DHT22;56847;51.984;5.088;2023-03-17T15:40:58;20.70;50.50
69626;DHT22;56847;51.984;5.088;2023-03-17T15:43:25;20.60;50.40
69626;DHT22;56847;51.984;5.088;2023-03-17T15:46:04;20.60;50.50
69626;DHT22;56847;51.984;5.088;2023-03-17T15:48:34;20.60;50.20
69626;DHT22;56847;51.984;5.088;2023-03-17T15:51:04;20.60;50.40
69626;DHT22;56847;51.984;5.088;2023-03-17T15:53:31;20.50;50.60
69626;DHT22;56847;51.984;5.088;2023-03-17T15:55:58;20.50;50.40
69626;DHT22;56847;51.984;5.088;2023-03-17T15:58:25;20.40;50.40
69626;DHT22;56847;51.984;5.088;2023-03-17T16:00:55;20.40;50.80
69626;DHT22;56847;51.984;5.088;2023-03-17T16:03:33;20.30;51.20
69626;DHT22;56847;51.984;5.088;2023-03-17T16:06:04;20.30;51.10
69626;DHT22;56847;51.984;5.088;2023-03-17T16:08:35;20.30;51.30
69626;DHT22;56847;51.984;5.088;2023-03-17T16:11:03;20.20;51.50
69626;DHT22;56847;51.984;5.088;2023-03-17T16:13:32;20.20;51.80
69626;DHT22;56847;51.984;5.088;2023-03-17T16:16:00;20.10;52.00
69626;DHT22;56847;51.984;5.088;2023-03-17T16:18:35;20.10;52.20
69626;DHT22;56847;51.984;5.088;2023-03-17T16:21:03;20.00;52.40
69626;DHT22;56847;51.984;5.088;2023-03-17T16:23:34;19.90;52.50
69626;DHT22;56847;51.984;5.088;2023-03-17T16:26:03;19.90;52.30
69626;DHT22;56847;51.984;5.088;2023-03-17T16:28:43;19.80;52.40
69626;DHT22;56847;51.984;5.088;2023-03-17T16:31:25;19.70;52.60
69626;DHT22;56847;51.984;5.088;2023-03-17T16:33:54;19.70;52.60
69626;DHT22;56847;51.984;5.088;2023-03-17T16:36:22;19.60;52.80
69626;DHT22;56847;51.984;5.088;2023-03-17T16:38:50;19.50;52.70
69626;DHT22;56847;51.984;5.088;2023-03-17T16:41:19;19.40;52.70
69626;DHT22;56847;51.984;5.088;2023-03-17T16:43:50;19.40;53.20
69626;DHT22;56847;51.984;5.088;2023-03-17T16:46:19;19.30;53.60
69626;DHT22;56847;51.984;5.088;2023-03-17T16:48:48;19.30;54.00
69626;DHT22;56847;51.984;5.088;2023-03-17T16:51:15;19.30;54.10
69626;DHT22;56847;51.984;5.088;2023-03-17T16:53:43;19.30;54.40
69626;DHT22;56847;51.984;5.088;2023-03-17T17:02:14;19.10;54.80
69626;DHT22;56847;51.984;5.088;2023-03-17T17:04:41;19.00;54.90
69626;DHT22;56847;51.984;5.088;2023-03-17T17:07:08;18.90;55.10
69626;DHT22;56847;51.984;5.088;2023-03-17T17:09:35;18.90;55.30
69626;DHT22;56847;51.984;5.088;2023-03-17T17:12:02;18.80;55.50
69626;DHT22;56847;51.984;5.088;2023-03-17T17:14:30;18.80;55.70
69626;DHT22;56847;51.984;5.088;2023-03-17T17:16:57;18.70;55.80
69626;DHT22;56847;51.984;5.088;2023-03-17T17:19:24;18.70;55.80
69626;DHT22;56847;51.984;5.088;2023-03-17T17:21:51;18.60;55.90
69626;DHT22;56847;51.984;5.088;2023-03-17T17:24:19;18.60;56.10
69626;DHT22;56847;51.984;5.088;2023-03-17T17:26:45;18.50;56.20
69626;DHT22;56847;51.984;5.088;2023-03-17T17:29:12;18.50;56.50
69626;DHT22;56847;51.984;5.088;2023-03-17T17:31:39;18.50;56.50
69626;DHT22;56847;51.984;5.088;2023-03-17T17:34:07;18.40;56.40
69626;DHT22;56847;51.984;5.088;2023-03-17T17:36:33;18.40;56.40
69626;DHT22;56847;51.984;5.088;2023-03-17T17:39:00;18.30;56.60
69626;DHT22;56847;51.984;5.088;2023-03-17T17:41:27;18.30;57.10
69626;DHT22;56847;51.984;5.088;2023-03-17T17:43:58;18.30;57.40
69626;DHT22;56847;51.984;5.088;2023-03-17T17:46:25;18.20;57.50
69626;DHT22;56847;51.984;5.088;2023-03-17T17:48:52;18.20;57.50
69626;DHT22;56847;51.984;5.088;2023-03-17T17:51:18;18.20;57.70
69626;DHT22;56847;51.984;5.088;2023-03-17T17:53:45;18.10;57.80
69626;DHT22;56847;51.984;5.088;2023-03-17T17:56:14;18.10;57.80
69626;DHT22;56847;51.984;5.088;2023-03-17T17:58:43;18.10;57.80